< < Back
Terminal Aerodrome Forecast


Current Version              Previous Versions:   1  2  3  4  5  6  7  8  9  

Terminal Aerodrome Forecast

926
FTUS44 KMRX 030529
TAFCHA
TAF
KCHA 030529Z 0306/0406 VRB02KT P6SM FEW080 OVC200
     FM031500 01006KT P6SM FEW050 BKN250=



Latest METAR

225
SAUS80 KWBC 040700 RRB
MTRCHA
METAR KCHA 040653Z AUTO 21003KT 8SM CLR 23/21 A2999 RMK AO2 SLP144
T02280206


USA.gov is the U.S. government's official web portal to all federal, state and local government web resources and services.